Time;durP1;ratioP1;P1;durP2;ratioP2;P2;SDS_P1;SDS_P2;PMS_P1;PMS_P2;Temp;Humidity;BMP_temperature;BMP_pressure;BME280_temperature;BME280_humidity;BME280_pressure;Samples;Min_cycle;Max_cycle;Signal;HPM_P1;HPM_P2
2022/02/27 00:00:11;;;;;;;;;56.50;47.50;;;;;;;;2;288088001;288088001;-77
2022/02/27 00:08:26;;;;;;;;;57.00;48.00;;;;;;;;2;261075213;261075213;-76
2022/02/27 00:17:54;;;;;;;;;54.00;42.00;;;;;;;;2;288083618;288083618;-77
2022/02/27 00:26:09;;;;;;;;;64.00;53.50;;;;;;;;2;261077852;261077852;-77
2022/02/27 00:35:37;;;;;;;;;42.00;37.00;;;;;;;;2;288082357;288082357;-77
2022/02/27 00:43:52;;;;;;;;;45.50;39.00;;;;;;;;2;261077478;261077478;-77
2022/02/27 00:53:20;;;;;;;;;60.00;49.50;;;;;;;;2;288085763;288085763;-77
2022/02/27 01:01:35;;;;;;;;;64.00;53.00;;;;;;;;2;261075200;261075200;-77
2022/02/27 01:11:03;;;;;;;;;49.00;42.00;;;;;;;;2;288083410;288083410;-77
2022/02/27 01:19:19;;;;;;;;;46.50;40.50;;;;;;;;2;261078999;261078999;-77
2022/02/27 01:28:46;;;;;;;;;45.50;39.50;;;;;;;;2;288082973;288082973;-76
2022/02/27 01:37:02;;;;;;;;;5.50;5.50;;;;;;;;2;261076547;261076547;-77
2022/02/27 01:46:29;;;;;;;;;24.00;24.00;;;;;;;;2;288086170;288086170;-77
2022/02/27 01:54:45;;;;;;;;;67.50;55.00;;;;;;;;2;261077785;261077785;-77
2022/02/27 02:04:12;;;;;;;;;52.50;43.50;;;;;;;;2;288086794;288086794;-76
2022/02/27 02:12:28;;;;;;;;;39.50;35.50;;;;;;;;2;261077537;261077537;-77
2022/02/27 02:21:58;;;;;;;;;31.00;30.50;;;;;;;;2;288085258;288085258;-76
2022/02/27 02:30:13;;;;;;;;;43.00;37.50;;;;;;;;2;261075221;261075221;-76
2022/02/27 02:39:41;;;;;;;;;28.50;28.00;;;;;;;;2;288081757;288081757;-77
2022/02/27 02:47:56;;;;;;;;;28.00;28.00;;;;;;;;2;261075862;261075862;-76
2022/02/27 02:57:24;;;;;;;;;11.50;11.50;;;;;;;;2;288083285;288083285;-77
2022/02/27 03:05:39;;;;;;;;;11.50;11.50;;;;;;;;2;261077117;261077117;-76
2022/02/27 03:15:08;;;;;;;;;56.00;47.00;;;;;;;;2;288085558;288085558;-77
2022/02/27 03:23:23;;;;;;;;;27.50;18.50;;;;;;;;2;261077863;261077863;-77
2022/02/27 03:32:51;;;;;;;;;23.50;23.50;;;;;;;;2;288084180;288084180;-76
2022/02/27 03:41:06;;;;;;;;;19.00;13.50;;;;;;;;2;261074962;261074962;-77
2022/02/27 03:50:34;;;;;;;;;49.50;37.00;;;;;;;;2;288082901;288082901;-77
2022/02/27 03:58:49;;;;;;;;;5.50;5.50;;;;;;;;2;261075651;261075651;-76
2022/02/27 04:08:16;;;;;;;;;21.50;21.50;;;;;;;;2;288084401;288084401;-76
2022/02/27 04:16:32;;;;;;;;;26.50;24.50;;;;;;;;2;261077357;261077357;-77
2022/02/27 04:25:59;;;;;;;;;16.50;16.50;;;;;;;;2;288085018;288085018;-76
2022/02/27 04:34:15;;;;;;;;;28.00;27.50;;;;;;;;2;261075855;261075855;-76
2022/02/27 04:43:42;;;;;;;;;26.00;26.00;;;;;;;;2;288082090;288082090;-76
2022/02/27 04:51:58;;;;;;;;;48.50;40.00;;;;;;;;2;261079060;261079060;-76
2022/02/27 05:01:25;;;;;;;;;25.50;25.50;;;;;;;;2;288084975;288084975;-76
2022/02/27 05:09:41;;;;;;;;;47.50;41.00;;;;;;;;2;261074926;261074926;-77
2022/02/27 05:19:08;;;;;;;;;32.50;31.00;;;;;;;;2;288085652;288085652;-77
2022/02/27 05:27:24;;;;;;;;;47.50;41.00;;;;;;;;2;261075036;261075036;-77
2022/02/27 05:36:53;;;;;;;;;48.00;41.50;;;;;;;;2;288082648;288082648;-76
2022/02/27 05:45:09;;;;;;;;;58.00;47.00;;;;;;;;2;261073701;261073701;-76
2022/02/27 05:54:37;;;;;;;;;57.00;47.50;;;;;;;;2;288087126;288087126;-77
2022/02/27 06:02:53;;;;;;;;;59.00;49.00;;;;;;;;2;261077487;261077487;-76
2022/02/27 06:12:20;;;;;;;;;47.00;41.00;;;;;;;;2;288083315;288083315;-76
2022/02/27 06:20:36;;;;;;;;;60.00;50.00;;;;;;;;2;261076180;261076180;-76
2022/02/27 06:30:03;;;;;;;;;60.50;50.50;;;;;;;;2;288083664;288083664;-76
2022/02/27 06:38:19;;;;;;;;;55.00;45.50;;;;;;;;2;261074252;261074252;-77
2022/02/27 06:47:46;;;;;;;;;58.50;48.50;;;;;;;;2;288086437;288086437;-77
2022/02/27 06:56:02;;;;;;;;;39.50;35.50;;;;;;;;2;261076659;261076659;-76
2022/02/27 07:05:29;;;;;;;;;53.00;45.00;;;;;;;;2;288084058;288084058;-76
2022/02/27 07:13:47;;;;;;;;;47.50;39.50;;;;;;;;2;261075779;261075779;-77
2022/02/27 07:23:14;;;;;;;;;44.50;38.50;;;;;;;;2;288085544;288085544;-75
2022/02/27 07:31:30;;;;;;;;;50.00;43.00;;;;;;;;2;261076371;261076371;-76
2022/02/27 07:40:58;;;;;;;;;40.50;36.00;;;;;;;;2;288086255;288086255;-75
2022/02/27 07:49:14;;;;;;;;;46.00;40.00;;;;;;;;2;261077995;261077995;-76
2022/02/27 07:58:41;;;;;;;;;53.00;43.50;;;;;;;;2;288086034;288086034;-75
2022/02/27 08:06:58;;;;;;;;;34.00;28.00;;;;;;;;2;261076333;261076333;-76
2022/02/27 08:16:26;;;;;;;;;20.50;20.50;;;;;;;;2;288085310;288085310;-76
2022/02/27 08:24:41;;;;;;;;;22.00;22.00;;;;;;;;2;261077486;261077486;-75
2022/02/27 08:34:09;;;;;;;;;32.50;31.50;;;;;;;;2;288089172;288089172;-76
2022/02/27 08:42:28;;;;;;;;;35.50;33.00;;;;;;;;2;261073880;261073880;-76
2022/02/27 08:51:56;;;;;;;;;34.50;32.50;;;;;;;;2;288082540;288082540;-76
2022/02/27 09:00:13;;;;;;;;;46.50;40.00;;;;;;;;2;261078030;261078030;-75
2022/02/27 09:09:42;;;;;;;;;34.50;32.50;;;;;;;;2;288085938;288085938;-75
2022/02/27 09:17:58;;;;;;;;;57.50;48.00;;;;;;;;2;261078397;261078397;-75
2022/02/27 09:27:25;;;;;;;;;32.00;29.50;;;;;;;;2;288084215;288084215;-75
2022/02/27 09:35:41;;;;;;;;;33.50;31.50;;;;;;;;2;261077127;261077127;-75
2022/02/27 09:45:10;;;;;;;;;21.00;21.00;;;;;;;;2;288083876;288083876;-75
2022/02/27 09:53:25;;;;;;;;;27.50;26.00;;;;;;;;2;261077443;261077443;-75
2022/02/27 10:03:07;;;;;;;;;43.00;38.00;;;;;;;;2;288085788;288085788;-75
2022/02/27 10:11:22;;;;;;;;;59.00;49.00;;;;;;;;2;261076247;261076247;-75
2022/02/27 10:20:50;;;;;;;;;40.50;36.50;;;;;;;;2;288083373;288083373;-75
2022/02/27 10:29:06;;;;;;;;;87.50;86.00;;;;;;;;2;261076958;261076958;-75
2022/02/27 10:38:45;;;;;;;;;60.50;53.00;;;;;;;;2;288084847;288084847;-75
2022/02/27 10:47:27;;;;;;;;;90.50;90.50;;;;;;;;2;261077615;261077615;-76
2022/02/27 10:56:54;;;;;;;;;104.50;104.50;;;;;;;;2;288086988;288086988;-76
2022/02/27 11:05:11;;;;;;;;;109.50;109.50;;;;;;;;2;261077483;261077483;-75
2022/02/27 11:14:39;;;;;;;;;195.00;195.00;;;;;;;;2;288085412;288085412;-77
2022/02/27 11:22:55;;;;;;;;;135.00;135.00;;;;;;;;2;261077990;261077990;-76
2022/02/27 11:32:23;;;;;;;;;72.00;67.50;;;;;;;;2;288087233;288087233;-75
2022/02/27 11:40:39;;;;;;;;;17.50;17.50;;;;;;;;2;261078779;261078779;-79
2022/02/27 11:50:24;;;;;;;;;22.50;21.00;;;;;;;;2;288084953;288084953;-79
2022/02/27 11:58:42;;;;;;;;;32.00;30.50;;;;;;;;2;261078910;261078910;-79
2022/02/27 12:08:14;;;;;;;;;42.50;37.50;;;;;;;;2;288084643;288084643;-72
2022/02/27 12:16:36;;;;;;;;;43.00;38.00;;;;;;;;2;261076694;261076694;-72
2022/02/27 12:26:30;;;;;;;;;44.50;39.00;;;;;;;;2;288087286;288087286;-70
2022/02/27 12:34:53;;;;;;;;;45.50;34.00;;;;;;;;2;261077556;261077556;-70
2022/02/27 12:44:31;;;;;;;;;33.00;31.00;;;;;;;;2;288082978;288082978;-71
2022/02/27 12:52:47;;;;;;;;;55.50;45.50;;;;;;;;2;261077010;261077010;-71
2022/02/27 13:02:19;;;;;;;;;57.00;47.50;;;;;;;;2;288084666;288084666;-71
2022/02/27 13:10:36;;;;;;;;;68.00;58.00;;;;;;;;2;261078911;261078911;-71
2022/02/27 13:20:14;;;;;;;;;62.00;51.50;;;;;;;;2;288085416;288085416;-71
2022/02/27 13:28:30;;;;;;;;;73.00;66.00;;;;;;;;2;261076550;261076550;-71
2022/02/27 13:38:05;;;;;;;;;75.00;70.00;;;;;;;;2;288084320;288084320;-71
2022/02/27 13:46:21;;;;;;;;;76.00;72.00;;;;;;;;2;261073673;261073673;-71
2022/02/27 13:55:49;;;;;;;;;70.00;62.00;;;;;;;;2;288084497;288084497;-70
2022/02/27 14:04:05;;;;;;;;;60.50;46.50;;;;;;;;2;261077834;261077834;-71
2022/02/27 14:13:33;;;;;;;;;80.50;79.00;;;;;;;;2;288083188;288083188;-70
2022/02/27 14:21:48;;;;;;;;;54.50;46.00;;;;;;;;2;261078787;261078787;-70
2022/02/27 14:31:16;;;;;;;;;65.00;54.00;;;;;;;;2;288085144;288085144;-70
2022/02/27 14:39:33;;;;;;;;;54.50;46.00;;;;;;;;2;261074204;261074204;-75
2022/02/27 14:49:00;;;;;;;;;61.00;50.00;;;;;;;;2;288083896;288083896;-75
2022/02/27 14:57:16;;;;;;;;;59.00;49.00;;;;;;;;2;261079600;261079600;-75
2022/02/27 15:06:43;;;;;;;;;50.50;43.00;;;;;;;;2;288084732;288084732;-75
2022/02/27 15:14:59;;;;;;;;;71.50;64.50;;;;;;;;2;261077273;261077273;-75
2022/02/27 15:24:27;;;;;;;;;71.50;63.50;;;;;;;;2;288083311;288083311;-75
2022/02/27 15:32:43;;;;;;;;;63.50;54.50;;;;;;;;2;261076564;261076564;-72
2022/02/27 15:42:10;;;;;;;;;66.50;53.50;;;;;;;;2;288084420;288084420;-72
2022/02/27 15:50:26;;;;;;;;;61.50;52.00;;;;;;;;2;261076498;261076498;-72
2022/02/27 15:59:53;;;;;;;;;59.50;50.00;;;;;;;;2;288084696;288084696;-72
2022/02/27 16:08:09;;;;;;;;;75.00;69.50;;;;;;;;2;261077678;261077678;-72
2022/02/27 16:17:36;;;;;;;;;70.00;62.00;;;;;;;;2;288084264;288084264;-71
2022/02/27 16:25:54;;;;;;;;;68.50;58.50;;;;;;;;2;261078701;261078701;-71
2022/02/27 16:35:21;;;;;;;;;68.50;61.50;;;;;;;;2;288083880;288083880;-71
2022/02/27 16:46:56;;;;;;;;;48.50;41.50;;;;;;;;2;261078074;261078074;-70
2022/02/27 16:56:24;;;;;;;;;56.50;45.00;;;;;;;;2;288084817;288084817;-71
2022/02/27 17:04:40;;;;;;;;;50.50;43.00;;;;;;;;2;261076423;261076423;-71
2022/02/27 17:14:07;;;;;;;;;65.00;53.00;;;;;;;;2;288084249;288084249;-71
2022/02/27 17:22:23;;;;;;;;;56.00;45.50;;;;;;;;2;261077084;261077084;-71
2022/02/27 17:31:50;;;;;;;;;57.50;48.50;;;;;;;;2;288081285;288081285;-71
2022/02/27 17:40:07;;;;;;;;;21.00;21.00;;;;;;;;2;261074764;261074764;-71
2022/02/27 17:49:35;;;;;;;;;52.50;44.50;;;;;;;;2;288085516;288085516;-71
2022/02/27 17:57:51;;;;;;;;;36.00;33.50;;;;;;;;2;261075848;261075848;-71
2022/02/27 18:07:18;;;;;;;;;50.50;43.00;;;;;;;;2;288085424;288085424;-71
2022/02/27 18:15:34;;;;;;;;;38.50;35.00;;;;;;;;2;261075448;261075448;-72
2022/02/27 18:25:01;;;;;;;;;40.00;36.00;;;;;;;;2;288085143;288085143;-71
2022/02/27 18:33:17;;;;;;;;;47.50;41.00;;;;;;;;2;261076595;261076595;-71
2022/02/27 18:42:45;;;;;;;;;58.00;49.00;;;;;;;;2;288083484;288083484;-75
2022/02/27 18:51:00;;;;;;;;;70.50;62.00;;;;;;;;2;261077623;261077623;-77
2022/02/27 19:00:30;;;;;;;;;54.00;45.50;;;;;;;;2;288086111;288086111;-76
2022/02/27 19:08:46;;;;;;;;;74.00;65.00;;;;;;;;2;261078683;261078683;-76
2022/02/27 19:18:13;;;;;;;;;64.50;49.50;;;;;;;;2;288084858;288084858;-76
2022/02/27 19:26:29;;;;;;;;;58.50;47.50;;;;;;;;2;261076782;261076782;-75
2022/02/27 19:35:57;;;;;;;;;76.50;72.50;;;;;;;;2;288082262;288082262;-74
2022/02/27 19:44:12;;;;;;;;;58.50;50.00;;;;;;;;2;261077497;261077497;-74
2022/02/27 19:53:40;;;;;;;;;102.00;102.00;;;;;;;;2;288084802;288084802;-75
2022/02/27 20:01:59;;;;;;;;;86.50;86.50;;;;;;;;2;261078813;261078813;-75
2022/02/27 20:11:26;;;;;;;;;124.50;121.00;;;;;;;;2;288083741;288083741;-75
2022/02/27 20:19:42;;;;;;;;;81.00;78.50;;;;;;;;2;261078579;261078579;-75
2022/02/27 20:29:09;;;;;;;;;75.00;70.50;;;;;;;;2;288086975;288086975;-75
2022/02/27 20:37:25;;;;;;;;;66.00;55.50;;;;;;;;2;261078440;261078440;-75
2022/02/27 20:46:53;;;;;;;;;72.00;61.50;;;;;;;;2;288083405;288083405;-75
2022/02/27 20:55:10;;;;;;;;;56.50;47.00;;;;;;;;2;261076621;261076621;-75
2022/02/27 21:04:38;;;;;;;;;53.50;45.00;;;;;;;;2;288087298;288087298;-75
2022/02/27 21:12:54;;;;;;;;;44.00;38.50;;;;;;;;2;261077893;261077893;-75
2022/02/27 21:22:21;;;;;;;;;67.50;52.50;;;;;;;;2;288087036;288087036;-75
2022/02/27 21:30:37;;;;;;;;;53.00;42.50;;;;;;;;2;261079790;261079790;-76
2022/02/27 21:40:07;;;;;;;;;57.00;48.00;;;;;;;;2;288083990;288083990;-75
2022/02/27 21:48:22;;;;;;;;;51.00;39.50;;;;;;;;2;261077929;261077929;-75
2022/02/27 21:57:50;;;;;;;;;64.00;49.00;;;;;;;;2;288083023;288083023;-75
2022/02/27 22:06:05;;;;;;;;;59.00;49.00;;;;;;;;2;261082231;261082231;-75
2022/02/27 22:15:33;;;;;;;;;59.00;49.00;;;;;;;;2;288084626;288084626;-76
2022/02/27 22:23:48;;;;;;;;;73.00;63.00;;;;;;;;2;261077780;261077780;-76
2022/02/27 22:33:16;;;;;;;;;60.50;48.50;;;;;;;;2;288084639;288084639;-76
2022/02/27 22:41:32;;;;;;;;;36.00;33.50;;;;;;;;2;261078522;261078522;-76
2022/02/27 22:50:59;;;;;;;;;64.00;53.50;;;;;;;;2;288085983;288085983;-76
2022/02/27 22:59:15;;;;;;;;;57.00;47.00;;;;;;;;2;261076697;261076697;-75
2022/02/27 23:08:42;;;;;;;;;63.00;49.00;;;;;;;;2;288086362;288086362;-76
2022/02/27 23:16:58;;;;;;;;;60.50;48.00;;;;;;;;2;261074819;261074819;-75
2022/02/27 23:26:31;;;;;;;;;45.50;37.00;;;;;;;;2;288083954;288083954;-75
2022/02/27 23:34:47;;;;;;;;;57.00;47.00;;;;;;;;2;261078695;261078695;-75
2022/02/27 23:44:14;;;;;;;;;56.00;47.00;;;;;;;;2;288082145;288082145;-75
2022/02/27 23:52:30;;;;;;;;;31.00;28.00;;;;;;;;2;261075660;261075660;-75
